createdAt,value
2019-02-05T00:00:46.006Z,6.20
2019-02-05T00:01:45.998Z,5.80
2019-02-05T00:02:45.979Z,6.50
2019-02-05T00:03:45.987Z,6.40
2019-02-05T00:04:45.966Z,6.50
2019-02-05T00:05:45.955Z,5.70
2019-02-05T00:06:45.965Z,7.10
2019-02-05T00:07:45.936Z,5.70
2019-02-05T00:08:45.937Z,5.80
2019-02-05T00:09:45.908Z,6.50
2019-02-05T00:10:45.907Z,5.80
2019-02-05T00:11:45.909Z,6.30
2019-02-05T00:12:45.875Z,6.30
2019-02-05T00:13:45.861Z,5.50
2019-02-05T00:14:45.861Z,6.70
2019-02-05T00:15:45.851Z,7.80
2019-02-05T00:16:45.859Z,6.40
2019-02-05T00:17:45.830Z,6.30
2019-02-05T00:18:45.817Z,5.30
2019-02-05T00:19:45.800Z,6.60
2019-02-05T00:20:45.799Z,5.50
2019-02-05T00:21:45.800Z,6.50
2019-02-05T00:22:45.782Z,6.20
2019-02-05T00:23:45.765Z,6.00
2019-02-05T00:24:45.761Z,6.00
2019-02-05T00:25:45.744Z,8.10
2019-02-05T00:26:45.754Z,6.40
2019-02-05T00:27:45.926Z,7.60
2019-02-05T00:28:45.705Z,7.20
2019-02-05T00:29:45.690Z,7.00
2019-02-05T00:30:45.685Z,6.60
2019-02-05T00:31:45.691Z,6.00
2019-02-05T00:32:45.661Z,6.60
2019-02-05T00:33:45.649Z,7.10
2019-02-05T00:34:45.640Z,6.10
2019-02-05T00:35:45.617Z,6.80
2019-02-05T00:36:45.631Z,8.10
2019-02-05T00:37:45.613Z,6.70
2019-02-05T00:38:45.603Z,9.90
2019-02-05T00:39:45.582Z,8.00
2019-02-05T00:40:45.565Z,7.80
2019-02-05T00:41:45.581Z,7.80
2019-02-05T00:42:45.559Z,8.50
2019-02-05T00:43:45.543Z,7.20
2019-02-05T00:44:45.537Z,6.90
2019-02-05T00:45:45.566Z,7.80
2019-02-05T00:46:45.526Z,8.80
2019-02-05T00:47:45.519Z,7.80
2019-02-05T00:48:45.489Z,8.80
2019-02-05T00:49:45.478Z,8.60
2019-02-05T00:50:45.474Z,7.60
2019-02-05T00:51:45.473Z,8.20
2019-02-05T00:52:45.447Z,8.60
2019-02-05T00:53:45.430Z,8.30
2019-02-05T00:54:45.425Z,7.50
2019-02-05T00:55:45.411Z,8.70
2019-02-05T00:56:45.419Z,8.80
2019-02-05T00:57:45.402Z,9.20
2019-02-05T00:58:45.370Z,8.60
2019-02-05T00:59:45.367Z,8.90
2019-02-05T01:00:45.347Z,8.00
2019-02-05T01:01:45.370Z,9.10
2019-02-05T01:02:45.341Z,10.60
2019-02-05T01:03:45.319Z,10.40
2019-02-05T01:04:45.313Z,8.80
2019-02-05T01:05:45.315Z,10.90
2019-02-05T01:06:45.311Z,8.50
2019-02-05T01:07:45.286Z,9.30
2019-02-05T01:08:45.264Z,10.60
2019-02-05T01:09:45.260Z,8.90
2019-02-05T01:10:45.238Z,9.70
2019-02-05T01:11:45.262Z,9.80
2019-02-05T01:12:45.234Z,9.80
2019-02-05T01:13:45.214Z,10.00
2019-02-05T01:14:45.208Z,9.00
2019-02-05T01:15:45.199Z,10.10
2019-02-05T01:16:45.202Z,10.20
2019-02-05T01:17:45.169Z,9.90
2019-02-05T01:18:45.165Z,9.20
2019-02-05T01:19:45.150Z,11.30
2019-02-05T01:20:45.130Z,9.20
2019-02-05T01:21:45.152Z,11.60
2019-02-05T01:22:45.136Z,10.70
2019-02-05T01:23:45.111Z,9.70
2019-02-05T01:24:45.099Z,10.40
2019-02-05T01:25:45.080Z,11.00
2019-02-05T01:26:45.103Z,10.10
2019-02-05T01:27:45.057Z,10.40
2019-02-05T01:28:45.048Z,11.30
2019-02-05T01:29:45.048Z,10.90
2019-02-05T01:31:54.238Z,10.50
2019-02-05T01:32:55.198Z,10.40
2019-02-05T01:33:55.189Z,12.20
2019-02-05T01:34:55.188Z,10.90
2019-02-05T01:35:55.172Z,11.20
2019-02-05T01:36:55.189Z,11.00
2019-02-05T01:37:55.167Z,11.50
2019-02-05T01:38:55.147Z,10.80
2019-02-05T01:39:55.139Z,10.60
2019-02-05T01:40:55.126Z,10.80
2019-02-05T01:41:55.143Z,12.40
2019-02-05T01:42:55.103Z,12.00
2019-02-05T01:43:55.091Z,11.20
2019-02-05T01:44:55.075Z,11.20
2019-02-05T01:45:55.059Z,11.10
2019-02-05T01:46:55.068Z,13.10
2019-02-05T01:47:55.053Z,13.70
2019-02-05T01:48:55.025Z,12.50
2019-02-05T01:49:55.023Z,10.90
2019-02-05T01:50:55.007Z,13.70
2019-02-05T01:51:55.002Z,14.40
2019-02-05T01:52:54.997Z,12.60
2019-02-05T01:53:54.980Z,14.10
2019-02-05T01:54:54.966Z,13.70
2019-02-05T01:55:54.967Z,13.20
2019-02-05T01:56:54.949Z,14.90
2019-02-05T01:57:54.959Z,12.50
2019-02-05T01:58:54.927Z,14.90
2019-02-05T01:59:54.915Z,14.90
2019-02-05T02:00:54.907Z,15.00
2019-02-05T02:01:54.900Z,13.60
2019-02-05T02:02:54.902Z,14.40
2019-02-05T02:03:54.873Z,14.90
2019-02-05T02:04:54.866Z,14.30
2019-02-05T02:05:54.856Z,14.20
2019-02-05T02:06:54.840Z,16.60
2019-02-05T02:07:54.845Z,14.60
2019-02-05T02:08:54.820Z,14.30
2019-02-05T02:09:54.803Z,17.10
2019-02-05T02:10:54.803Z,15.80
2019-02-05T02:11:54.781Z,17.40
2019-02-05T02:12:54.925Z,15.30
2019-02-05T02:13:54.778Z,16.20
2019-02-05T02:14:55.467Z,17.20
2019-02-05T02:15:54.735Z,17.20
2019-02-05T02:16:54.734Z,15.40
2019-02-05T02:17:54.748Z,17.50
2019-02-05T02:18:54.723Z,16.50
2019-02-05T02:19:54.689Z,17.70
2019-02-05T02:20:54.691Z,15.60
2019-02-05T02:21:54.676Z,17.60
2019-02-05T02:22:54.684Z,17.80
2019-02-05T02:23:54.664Z,16.60
2019-02-05T02:24:54.645Z,17.40
2019-02-05T02:25:54.638Z,15.60
2019-02-05T02:26:54.616Z,14.70
2019-02-05T02:27:54.631Z,16.50
2019-02-05T02:28:54.595Z,18.90
2019-02-05T02:29:54.587Z,17.20
2019-02-05T02:30:54.581Z,15.60
2019-02-05T02:31:54.570Z,16.10
2019-02-05T02:32:54.597Z,18.40
2019-02-05T02:33:54.548Z,17.60
2019-02-05T02:34:54.535Z,20.90
2019-02-05T02:35:54.543Z,15.90
2019-02-05T02:36:54.516Z,15.90
2019-02-05T02:37:54.515Z,16.20
2019-02-05T02:38:54.510Z,16.50
2019-02-05T02:39:54.485Z,15.90
2019-02-05T02:40:54.481Z,16.60
2019-02-05T02:41:54.461Z,15.90
2019-02-05T02:42:54.447Z,18.90
2019-02-05T02:43:54.453Z,17.00
2019-02-05T02:44:54.433Z,16.70
2019-02-05T02:45:54.415Z,17.40
2019-02-05T02:46:54.406Z,16.20
2019-02-05T02:47:54.397Z,19.20
2019-02-05T02:48:54.394Z,18.30
2019-02-05T02:49:54.376Z,15.90
2019-02-05T02:50:54.357Z,16.70
2019-02-05T02:51:54.355Z,16.50
2019-02-05T02:52:54.330Z,16.80
2019-02-05T02:53:54.351Z,17.60
2019-02-05T02:54:54.324Z,16.90
2019-02-05T02:55:54.308Z,19.10
2019-02-05T02:57:04.510Z,16.10
2019-02-05T02:57:54.284Z,16.30
2019-02-05T02:58:54.285Z,18.00
2019-02-05T02:59:54.267Z,18.80
2019-02-05T03:00:54.253Z,18.80
2019-02-05T03:01:54.248Z,16.50
2019-02-05T03:02:54.236Z,16.20
2019-02-05T03:03:54.243Z,20.30
2019-02-05T03:04:54.208Z,17.30
2019-02-05T03:05:54.197Z,18.60
2019-02-05T03:06:54.193Z,19.80
2019-02-05T03:07:54.180Z,17.50
2019-02-05T03:08:54.194Z,17.10
2019-02-05T03:09:54.154Z,16.30
2019-02-05T03:10:54.143Z,16.90
2019-02-05T03:11:54.123Z,18.30
2019-02-05T03:12:54.120Z,18.30
2019-02-05T03:13:54.135Z,17.30
2019-02-05T03:14:54.099Z,16.50
2019-02-05T03:15:54.087Z,15.30
2019-02-05T03:16:54.076Z,16.50
2019-02-05T03:17:54.068Z,18.30
2019-02-05T03:18:54.081Z,17.30
2019-02-05T03:19:54.054Z,17.30
2019-02-05T03:20:54.039Z,16.70
2019-02-05T03:21:54.014Z,19.10
2019-02-05T03:22:54.027Z,18.40
2019-02-05T03:23:54.005Z,17.60
2019-02-05T03:24:54.006Z,16.80
2019-02-05T03:25:53.983Z,15.80
2019-02-05T03:26:53.973Z,18.10
2019-02-05T03:27:54.391Z,16.40
2019-02-05T03:28:53.962Z,16.40
2019-02-05T03:29:53.966Z,15.80
2019-02-05T03:30:53.977Z,16.00
2019-02-05T03:33:03.131Z,14.30
2019-02-05T03:34:04.100Z,15.10
2019-02-05T03:35:04.111Z,16.40
2019-02-05T03:36:04.083Z,17.20
2019-02-05T03:37:04.074Z,17.00
2019-02-05T03:38:04.066Z,16.80
2019-02-05T03:39:04.051Z,16.10
2019-02-05T03:40:04.042Z,17.80
2019-02-05T03:41:04.035Z,16.00
2019-02-05T03:42:04.013Z,15.80
2019-02-05T03:43:04.000Z,16.60
2019-02-05T03:44:04.013Z,15.60
2019-02-05T03:45:03.979Z,17.10
2019-02-05T03:46:03.988Z,17.40
2019-02-05T03:47:03.964Z,16.00
2019-02-05T03:48:03.962Z,18.50
2019-02-05T03:49:03.936Z,16.20
2019-02-05T03:50:03.944Z,17.20
2019-02-05T03:51:03.939Z,18.50
2019-02-05T03:52:03.922Z,17.10
2019-02-05T03:53:03.903Z,17.10
2019-02-05T03:54:03.889Z,16.30
2019-02-05T03:55:03.885Z,16.00
2019-02-05T03:56:03.895Z,18.00
2019-02-05T03:57:03.867Z,16.70
2019-02-05T03:58:03.835Z,16.20
2019-02-05T03:59:03.828Z,14.90
2019-02-05T04:00:03.825Z,17.20
2019-02-05T04:01:03.828Z,15.80
2019-02-05T04:02:03.817Z,16.60
2019-02-05T04:03:03.784Z,16.10
2019-02-05T04:04:03.785Z,17.80
2019-02-05T04:05:03.764Z,18.00
2019-02-05T04:06:03.774Z,17.60
2019-02-05T04:07:03.745Z,17.00
2019-02-05T04:08:03.738Z,16.10
2019-02-05T04:09:03.730Z,17.00
2019-02-05T04:10:03.720Z,15.50
2019-02-05T04:11:03.721Z,15.80
2019-02-05T04:12:03.700Z,15.10
2019-02-05T04:13:03.698Z,15.50
2019-02-05T04:14:03.674Z,16.00
2019-02-05T04:15:03.660Z,15.60
2019-02-05T04:16:03.671Z,16.20
2019-02-05T04:17:03.645Z,17.40
2019-02-05T04:18:03.624Z,17.60
2019-02-05T04:19:03.623Z,16.40
2019-02-05T04:20:03.608Z,15.10
2019-02-05T04:21:03.614Z,16.40
2019-02-05T04:22:03.587Z,16.80
2019-02-05T04:23:03.565Z,15.60
2019-02-05T04:24:03.570Z,15.00
2019-02-05T04:25:04.354Z,15.40
2019-02-05T04:26:03.559Z,16.30
2019-02-05T04:27:03.540Z,16.30
2019-02-05T04:28:03.526Z,14.90
2019-02-05T04:29:03.548Z,15.30
2019-02-05T04:30:03.529Z,15.50
2019-02-05T04:31:03.512Z,16.00
2019-02-05T04:32:03.479Z,16.20
2019-02-05T04:33:03.465Z,15.90
2019-02-05T04:34:03.461Z,16.10
2019-02-05T04:35:03.441Z,14.50
2019-02-05T04:36:03.455Z,18.00
2019-02-05T04:37:03.420Z,15.70
2019-02-05T04:38:03.408Z,15.00
2019-02-05T04:39:03.409Z,18.60
2019-02-05T04:40:03.398Z,15.40
2019-02-05T04:41:03.420Z,17.00
2019-02-05T04:42:03.369Z,16.10
2019-02-05T04:43:03.363Z,16.30
2019-02-05T04:44:03.350Z,17.00
2019-02-05T04:45:03.329Z,18.00
2019-02-05T04:46:03.365Z,16.40
2019-02-05T04:47:03.318Z,16.80
2019-02-05T04:48:03.308Z,15.90
2019-02-05T04:49:03.299Z,16.80
2019-02-05T04:50:03.279Z,16.40
2019-02-05T04:51:03.291Z,16.40
2019-02-05T04:52:03.263Z,16.30
2019-02-05T04:53:03.247Z,15.60
2019-02-05T04:54:03.246Z,16.10
2019-02-05T04:55:03.238Z,15.40
2019-02-05T04:56:03.271Z,16.40
2019-02-05T04:57:03.221Z,16.30
2019-02-05T04:58:03.187Z,16.80
2019-02-05T04:59:03.191Z,16.00
2019-02-05T05:00:03.229Z,16.80
2019-02-05T05:01:03.181Z,16.20
2019-02-05T05:02:03.161Z,17.20
2019-02-05T05:03:03.149Z,18.50
2019-02-05T05:04:03.128Z,15.40
2019-02-05T05:05:03.131Z,16.80
2019-02-05T05:06:03.133Z,17.00
2019-02-05T05:07:03.116Z,18.20
2019-02-05T05:08:03.090Z,16.40
2019-02-05T05:09:03.086Z,16.80
2019-02-05T05:10:03.074Z,16.60
2019-02-05T05:11:03.081Z,17.60
2019-02-05T05:12:03.046Z,16.00
2019-02-05T05:13:03.059Z,16.50
2019-02-05T05:14:03.021Z,16.10
2019-02-05T05:15:03.008Z,18.50
2019-02-05T05:16:03.019Z,17.40
2019-02-05T05:17:02.999Z,17.90
2019-02-05T05:18:02.980Z,17.00
2019-02-05T05:19:02.987Z,17.40
2019-02-05T05:20:02.956Z,18.20
2019-02-05T05:21:02.942Z,17.00
2019-02-05T05:22:02.983Z,20.20
2019-02-05T05:23:02.937Z,17.00
2019-02-05T05:24:02.922Z,18.30
2019-02-05T05:25:02.929Z,16.90
2019-02-05T05:26:02.895Z,17.60
2019-02-05T05:27:02.928Z,18.00
2019-02-05T05:28:10.084Z,17.30
2019-02-05T05:29:02.885Z,18.80
2019-02-05T05:30:02.921Z,16.30
2019-02-05T05:31:02.846Z,17.10
2019-02-05T05:32:02.861Z,18.50
2019-02-05T05:34:12.004Z,18.90
2019-02-05T05:35:12.993Z,17.70
2019-02-05T05:36:12.978Z,20.80
2019-02-05T05:37:13.005Z,20.40
2019-02-05T05:38:12.966Z,18.50
2019-02-05T05:39:12.949Z,19.70
2019-02-05T05:40:12.948Z,19.70
2019-02-05T05:41:12.931Z,18.70
2019-02-05T05:42:12.948Z,19.40
2019-02-05T05:43:12.928Z,18.60
2019-02-05T05:44:12.901Z,19.30
2019-02-05T05:45:12.891Z,19.70
2019-02-05T05:46:12.891Z,18.60
2019-02-05T05:47:12.888Z,18.00
2019-02-05T05:48:12.859Z,20.10
2019-02-05T05:49:12.838Z,20.60
2019-02-05T05:50:12.839Z,20.20
2019-02-05T05:51:12.817Z,22.70
2019-02-05T05:52:12.844Z,20.50
2019-02-05T05:53:12.816Z,21.70
2019-02-05T05:54:12.791Z,20.60
2019-02-05T05:55:12.778Z,21.20
2019-02-05T05:56:12.769Z,22.30
2019-02-05T05:57:12.790Z,23.20
2019-02-05T05:58:22.269Z,21.60
2019-02-05T05:59:12.730Z,23.20
2019-02-05T06:00:12.730Z,22.30
2019-02-05T06:01:12.724Z,24.90
2019-02-05T06:02:12.736Z,22.10
2019-02-05T06:03:12.714Z,23.80
2019-02-05T06:04:12.685Z,24.40
2019-02-05T06:05:12.670Z,22.00
2019-02-05T06:06:12.684Z,23.40
2019-02-05T06:07:12.675Z,24.70
2019-02-05T06:08:12.650Z,23.80
2019-02-05T06:09:12.638Z,25.40
2019-02-05T06:10:12.626Z,24.10
2019-02-05T06:11:12.614Z,24.90
2019-02-05T06:12:12.612Z,23.20
2019-02-05T06:13:12.588Z,24.60
2019-02-05T06:14:12.572Z,27.90
2019-02-05T06:15:12.562Z,24.00
2019-02-05T06:16:12.547Z,26.10
2019-02-05T06:17:12.671Z,27.70
2019-02-05T06:18:12.528Z,27.30
2019-02-05T06:19:12.616Z,27.10
2019-02-05T06:20:12.505Z,29.00
2019-02-05T06:21:13.784Z,28.90
2019-02-05T06:22:12.503Z,29.70
2019-02-05T06:23:12.487Z,27.50
2019-02-05T06:24:12.468Z,29.00
2019-02-05T06:25:12.466Z,29.10
2019-02-05T06:26:12.434Z,28.60
2019-02-05T06:27:12.455Z,28.80
2019-02-05T06:28:12.441Z,29.40
2019-02-05T06:29:12.403Z,28.80
2019-02-05T06:30:12.392Z,28.80
2019-02-05T06:31:12.385Z,29.90
2019-02-05T06:32:12.400Z,31.00
2019-02-05T06:33:12.374Z,30.60
2019-02-05T06:34:12.374Z,29.00
2019-02-05T06:35:13.288Z,34.10
2019-02-05T06:36:12.326Z,31.70
2019-02-05T06:37:12.348Z,30.10
2019-02-05T06:38:12.314Z,32.00
2019-02-05T06:39:12.313Z,30.00
2019-02-05T06:40:12.288Z,30.50
2019-02-05T06:41:12.276Z,32.60
2019-02-05T06:42:12.285Z,34.50
2019-02-05T06:43:12.251Z,32.10
2019-02-05T06:44:12.258Z,35.60
2019-02-05T06:45:12.274Z,35.60
2019-02-05T06:46:12.237Z,33.80
2019-02-05T06:47:12.230Z,33.20
2019-02-05T06:48:12.197Z,35.30
2019-02-05T06:49:12.250Z,37.40
2019-02-05T06:50:12.310Z,38.40
2019-02-05T06:51:12.189Z,35.40
2019-02-05T06:52:12.277Z,37.80
2019-02-05T06:53:12.152Z,37.40
2019-02-05T06:54:12.201Z,36.00
2019-02-05T06:55:12.433Z,39.20
2019-02-05T06:56:12.134Z,39.40
2019-02-05T06:57:12.116Z,39.10
2019-02-05T06:58:12.088Z,42.30
2019-02-05T06:59:12.114Z,43.60
2019-02-05T07:00:12.082Z,39.30
2019-02-05T07:01:12.066Z,40.20
2019-02-05T07:02:12.250Z,40.50
2019-02-05T07:03:12.124Z,43.20
2019-02-05T07:04:12.090Z,39.80
2019-02-05T07:05:12.028Z,40.90
2019-02-05T07:06:12.138Z,42.10
2019-02-05T07:07:12.004Z,43.40
2019-02-05T07:08:12.469Z,43.00
2019-02-05T07:09:12.039Z,42.00
2019-02-05T07:10:11.967Z,44.50
2019-02-05T07:11:11.957Z,47.10
2019-02-05T07:12:11.950Z,43.30
2019-02-05T07:13:11.947Z,44.00
2019-02-05T07:14:11.995Z,47.40
2019-02-05T07:15:11.903Z,44.30
2019-02-05T07:16:11.936Z,45.30
2019-02-05T07:17:12.063Z,43.80
2019-02-05T07:18:11.910Z,44.10
2019-02-05T07:19:11.881Z,44.90
2019-02-05T07:20:11.846Z,46.80
2019-02-05T07:21:11.864Z,44.90
2019-02-05T07:22:11.848Z,46.00
2019-02-05T07:23:11.847Z,43.20
2019-02-05T07:24:11.835Z,48.70
2019-02-05T07:25:11.813Z,43.70
2019-02-05T07:26:12.502Z,50.30
2019-02-05T07:27:11.775Z,49.80
2019-02-05T07:28:11.788Z,46.70
2019-02-05T07:29:11.754Z,47.90
2019-02-05T07:30:11.745Z,49.60
2019-02-05T07:31:11.744Z,46.70
2019-02-05T07:32:11.751Z,48.30
2019-02-05T07:33:11.746Z,49.10
2019-02-05T07:35:21.670Z,44.80
2019-02-05T07:36:22.987Z,51.10
2019-02-05T07:37:22.542Z,48.20
2019-02-05T07:38:23.008Z,51.80
2019-02-05T07:39:22.504Z,46.10
2019-02-05T07:40:22.599Z,49.10
2019-02-05T07:41:22.548Z,53.50
2019-02-05T07:42:22.491Z,50.70
2019-02-05T07:43:22.588Z,51.00
2019-02-05T07:44:22.470Z,53.20
2019-02-05T07:45:22.499Z,51.20
2019-02-05T07:46:23.174Z,51.40
2019-02-05T07:47:23.486Z,52.40
2019-02-05T07:48:22.420Z,50.10
2019-02-05T07:49:22.468Z,51.00
2019-02-05T07:50:22.381Z,51.60
2019-02-05T07:51:22.529Z,51.70
2019-02-05T07:52:22.352Z,49.30
2019-02-05T07:53:22.362Z,53.20
2019-02-05T07:54:22.387Z,50.50
2019-02-05T07:55:22.332Z,50.40
2019-02-05T07:56:22.425Z,52.20
2019-02-05T07:57:22.474Z,54.50
2019-02-05T07:58:22.318Z,51.80
2019-02-05T07:59:22.402Z,54.00
2019-02-05T08:00:22.363Z,47.30
2019-02-05T08:01:22.265Z,49.80
2019-02-05T08:02:22.258Z,47.50
2019-02-05T08:03:22.271Z,49.40
2019-02-05T08:04:22.239Z,48.60
2019-02-05T08:05:22.239Z,48.10
2019-02-05T08:06:22.276Z,51.60
2019-02-05T08:07:22.198Z,49.00
2019-02-05T08:08:22.283Z,50.40
2019-02-05T08:09:22.204Z,48.00
2019-02-05T08:10:22.201Z,51.50
2019-02-05T08:11:22.151Z,51.60
2019-02-05T08:12:22.150Z,52.60
2019-02-05T08:13:22.168Z,50.20
2019-02-05T08:14:22.126Z,46.10
2019-02-05T08:15:22.121Z,50.00
2019-02-05T08:16:22.128Z,48.60
2019-02-05T08:17:22.110Z,49.60
2019-02-05T08:18:22.248Z,50.40
2019-02-05T08:19:22.089Z,48.90
2019-02-05T08:20:22.081Z,47.40
2019-02-05T08:21:22.065Z,48.90
2019-02-05T08:22:22.090Z,49.00
2019-02-05T08:23:22.150Z,46.80
2019-02-05T08:24:22.029Z,47.00
2019-02-05T08:25:22.012Z,49.10
2019-02-05T08:26:22.060Z,50.30
2019-02-05T08:27:21.995Z,52.20
2019-02-05T08:28:21.966Z,48.50
2019-02-05T08:29:22.046Z,48.90
2019-02-05T08:30:21.985Z,50.20
2019-02-05T08:31:21.963Z,51.00
2019-02-05T08:32:21.964Z,52.10
2019-02-05T08:33:22.071Z,52.30
2019-02-05T08:34:22.056Z,53.20
2019-02-05T08:35:22.001Z,52.40
2019-02-05T08:36:21.954Z,54.20
2019-02-05T08:37:21.898Z,57.60
2019-02-05T08:38:21.895Z,55.00
2019-02-05T08:39:21.884Z,55.20
2019-02-05T08:40:21.919Z,56.30
2019-02-05T08:41:21.862Z,56.90
2019-02-05T08:42:21.906Z,58.60
2019-02-05T08:43:21.814Z,57.20
2019-02-05T08:44:21.828Z,58.70
2019-02-05T08:45:21.817Z,60.50
2019-02-05T08:46:21.774Z,53.20
2019-02-05T08:47:21.810Z,59.10
2019-02-05T08:48:21.925Z,59.00
2019-02-05T08:49:21.746Z,60.40
2019-02-05T08:50:21.762Z,53.50
2019-02-05T08:51:21.736Z,54.70
2019-02-05T08:52:21.723Z,53.60
2019-02-05T08:53:21.728Z,57.90
2019-02-05T08:54:21.716Z,53.30
2019-02-05T08:55:21.901Z,58.60
2019-02-05T08:56:21.996Z,55.90
2019-02-05T08:57:21.664Z,57.80
2019-02-05T08:58:30.562Z,59.80
2019-02-05T08:59:21.639Z,57.90
2019-02-05T09:00:21.662Z,60.80
2019-02-05T09:01:21.635Z,57.80
2019-02-05T09:02:21.606Z,58.50
2019-02-05T09:03:21.605Z,57.70
2019-02-05T09:04:21.586Z,66.10
2019-02-05T09:05:22.710Z,61.40
2019-02-05T09:06:21.625Z,61.00
2019-02-05T09:07:21.616Z,60.40
2019-02-05T09:08:21.740Z,66.60
2019-02-05T09:09:21.695Z,59.10
2019-02-05T09:10:21.581Z,57.80
2019-02-05T09:11:21.927Z,61.50
2019-02-05T09:12:21.808Z,60.60
2019-02-05T09:13:21.833Z,61.00
2019-02-05T09:14:21.497Z,61.80
2019-02-05T09:15:29.082Z,56.50
2019-02-05T09:16:21.515Z,57.80
2019-02-05T09:17:24.259Z,60.60
2019-02-05T09:18:21.478Z,60.60
2019-02-05T09:19:21.440Z,59.60
2019-02-05T09:20:21.566Z,58.20
2019-02-05T09:21:21.976Z,61.10
2019-02-05T09:22:21.416Z,61.40
2019-02-05T09:23:21.441Z,58.40
2019-02-05T09:24:21.559Z,54.60
2019-02-05T09:25:21.538Z,58.00
2019-02-05T09:26:21.432Z,54.80
2019-02-05T09:27:21.356Z,57.40
2019-02-05T09:28:21.425Z,60.30
2019-02-05T09:29:21.327Z,61.50
2019-02-05T09:30:21.543Z,54.30
2019-02-05T09:31:21.427Z,58.50
2019-02-05T09:32:21.314Z,66.90
2019-02-05T09:33:21.348Z,57.10
2019-02-05T09:34:21.410Z,59.90
2019-02-05T09:36:30.500Z,50.70
2019-02-05T09:37:31.552Z,53.40
2019-02-05T09:38:31.482Z,52.90
2019-02-05T09:39:31.426Z,51.70
2019-02-05T09:40:31.418Z,50.90
2019-02-05T09:41:31.461Z,53.40
2019-02-05T09:42:31.405Z,51.20
2019-02-05T09:43:31.387Z,52.50
2019-02-05T09:44:31.644Z,51.90
2019-02-05T09:45:31.366Z,47.00
2019-02-05T09:46:31.431Z,47.10
2019-02-05T09:47:31.349Z,47.30
2019-02-05T09:48:31.327Z,48.30
2019-02-05T09:49:31.309Z,45.80
2019-02-05T09:50:43.711Z,48.00
2019-02-05T09:51:31.313Z,44.00
2019-02-05T09:52:31.298Z,45.80
2019-02-05T09:53:31.297Z,47.10
2019-02-05T09:54:31.276Z,48.00
2019-02-05T09:55:31.245Z,46.90
2019-02-05T09:56:32.225Z,50.00
2019-02-05T09:57:31.716Z,50.30
2019-02-05T09:58:31.261Z,45.90
2019-02-05T09:59:31.257Z,46.80
2019-02-05T10:00:31.738Z,47.20
2019-02-05T10:01:31.692Z,46.40
2019-02-05T10:02:31.899Z,46.50
2019-02-05T10:03:31.930Z,45.60
2019-02-05T10:04:31.182Z,45.30
2019-02-05T10:05:31.240Z,46.40
2019-02-05T10:06:31.158Z,48.00
2019-02-05T10:07:31.631Z,45.20
2019-02-05T10:08:31.201Z,48.00
2019-02-05T10:09:31.240Z,46.60
2019-02-05T10:10:31.082Z,49.30
2019-02-05T10:11:31.213Z,46.60
2019-02-05T10:12:31.112Z,49.30
2019-02-05T10:13:31.061Z,48.60
2019-02-05T10:14:31.056Z,44.00
2019-02-05T10:15:31.111Z,45.30
2019-02-05T10:16:31.018Z,46.50
2019-02-05T10:17:31.002Z,50.50
2019-02-05T10:18:31.000Z,47.40
2019-02-05T10:19:30.983Z,48.00
2019-02-05T10:20:30.969Z,49.80
2019-02-05T10:21:31.021Z,48.20
2019-02-05T10:22:30.951Z,48.20
2019-02-05T10:23:31.010Z,50.00
2019-02-05T10:24:30.953Z,49.20
2019-02-05T10:25:30.948Z,49.80
2019-02-05T10:26:30.913Z,49.30
2019-02-05T10:27:30.900Z,49.80
2019-02-05T10:28:30.918Z,48.80
2019-02-05T10:29:30.879Z,47.90
2019-02-05T10:30:30.968Z,48.40
2019-02-05T10:31:30.862Z,49.30
2019-02-05T10:32:30.846Z,48.80
2019-02-05T10:33:30.852Z,48.90
2019-02-05T10:34:34.091Z,51.20
2019-02-05T10:35:30.882Z,48.30
2019-02-05T10:36:30.809Z,49.30
2019-02-05T10:37:30.850Z,50.40
2019-02-05T10:38:30.792Z,51.30
2019-02-05T10:39:30.770Z,49.20
2019-02-05T10:40:30.758Z,51.30
2019-02-05T10:41:30.746Z,50.10
2019-02-05T10:42:30.727Z,50.90
2019-02-05T10:43:30.744Z,50.60
2019-02-05T10:44:30.713Z,48.50
2019-02-05T10:45:30.709Z,48.80
2019-02-05T10:46:30.712Z,50.10
2019-02-05T10:47:30.680Z,48.20
2019-02-05T10:48:30.707Z,48.60
2019-02-05T10:49:30.691Z,46.90
2019-02-05T10:50:30.642Z,44.50
2019-02-05T10:51:30.672Z,43.80
2019-02-05T10:52:30.932Z,40.70
2019-02-05T10:53:30.644Z,41.60
2019-02-05T10:54:30.641Z,39.60
2019-02-05T10:55:30.660Z,41.50
2019-02-05T10:56:30.606Z,40.80
2019-02-05T10:57:30.629Z,42.80
2019-02-05T10:58:30.585Z,44.20
2019-02-05T10:59:30.649Z,42.10
2019-02-05T11:00:30.536Z,44.10
2019-02-05T11:01:30.562Z,41.50
2019-02-05T11:02:30.536Z,40.40
2019-02-05T11:03:30.534Z,41.00
2019-02-05T11:04:30.663Z,40.70
2019-02-05T11:05:30.489Z,43.60
2019-02-05T11:06:30.487Z,42.70
2019-02-05T11:07:30.509Z,41.60
2019-02-05T11:08:30.466Z,38.70
2019-02-05T11:09:30.500Z,41.90
2019-02-05T11:10:30.490Z,40.10
2019-02-05T11:11:30.660Z,37.50
2019-02-05T11:12:30.458Z,38.80
2019-02-05T11:13:30.635Z,37.50
2019-02-05T11:14:30.477Z,34.00
2019-02-05T11:15:30.382Z,35.70
2019-02-05T11:16:30.397Z,32.00
2019-02-05T11:17:30.349Z,32.00
2019-02-05T11:18:30.358Z,32.30
2019-02-05T11:19:30.336Z,29.90
2019-02-05T11:20:30.314Z,35.20
2019-02-05T11:21:30.314Z,34.60
2019-02-05T11:22:30.298Z,39.60
2019-02-05T11:23:31.227Z,35.80
2019-02-05T11:24:30.882Z,39.20
2019-02-05T11:25:30.253Z,36.70
2019-02-05T11:26:30.305Z,36.80
2019-02-05T11:27:30.247Z,37.80
2019-02-05T11:28:30.237Z,37.90
2019-02-05T11:29:30.423Z,38.00
2019-02-05T11:30:30.253Z,40.40
2019-02-05T11:31:30.208Z,38.30
2019-02-05T11:32:30.199Z,40.40
2019-02-05T11:33:30.369Z,38.40
2019-02-05T11:34:30.236Z,37.10
2019-02-05T11:35:30.261Z,39.20
2019-02-05T11:37:39.376Z,38.80
2019-02-05T11:38:40.334Z,39.70
2019-02-05T11:39:40.706Z,37.10
2019-02-05T11:40:40.348Z,38.80
2019-02-05T11:41:40.306Z,38.80
2019-02-05T11:42:40.352Z,35.00
2019-02-05T11:43:40.373Z,37.60
2019-02-05T11:44:40.321Z,36.80
2019-02-05T11:45:40.288Z,36.40
2019-02-05T11:46:40.371Z,36.50
2019-02-05T11:47:40.347Z,37.20
2019-02-05T11:48:40.347Z,36.40
2019-02-05T11:49:40.339Z,40.40
2019-02-05T11:50:40.312Z,39.00
2019-02-05T11:51:40.180Z,38.40
2019-02-05T11:52:40.184Z,38.00
2019-02-05T11:53:40.176Z,42.20
2019-02-05T11:54:40.238Z,43.00
2019-02-05T11:55:40.156Z,39.30
2019-02-05T11:56:40.175Z,44.00
2019-02-05T11:57:40.193Z,41.40
2019-02-05T11:58:40.119Z,41.00
2019-02-05T11:59:40.142Z,44.90
2019-02-05T12:00:40.191Z,42.10
2019-02-05T12:01:40.111Z,41.00
2019-02-05T12:02:40.066Z,40.70
2019-02-05T12:03:40.086Z,42.30
2019-02-05T12:04:40.075Z,42.90
2019-02-05T12:05:40.065Z,41.50
2019-02-05T12:06:40.057Z,40.20
2019-02-05T12:07:40.030Z,43.40
2019-02-05T12:08:40.059Z,40.70
2019-02-05T12:09:39.988Z,43.50
2019-02-05T12:10:40.058Z,41.40
2019-02-05T12:11:39.994Z,41.10
2019-02-05T12:12:40.005Z,42.70
2019-02-05T12:13:39.964Z,42.20
2019-02-05T12:14:39.977Z,44.30
2019-02-05T12:15:40.038Z,42.20
2019-02-05T12:16:40.000Z,42.00
2019-02-05T12:17:39.988Z,41.20
2019-02-05T12:18:39.908Z,39.60
2019-02-05T12:19:39.916Z,40.50
2019-02-05T12:20:39.939Z,40.20
2019-02-05T12:21:39.887Z,45.30
2019-02-05T12:22:39.994Z,41.60
2019-02-05T12:23:39.844Z,42.80
2019-02-05T12:24:39.851Z,41.80
2019-02-05T12:25:39.876Z,44.20
2019-02-05T12:26:39.836Z,46.20
2019-02-05T12:27:39.809Z,43.00
2019-02-05T12:28:39.815Z,42.90
2019-02-05T12:29:39.795Z,42.90
2019-02-05T12:30:44.870Z,46.20
2019-02-05T12:31:39.813Z,44.80
2019-02-05T12:32:39.762Z,42.80
2019-02-05T12:33:39.796Z,43.50
2019-02-05T12:34:39.719Z,43.20
2019-02-05T12:35:39.741Z,41.60
2019-02-05T12:36:39.723Z,41.40
2019-02-05T12:37:39.695Z,40.00
2019-02-05T12:38:39.671Z,39.50
2019-02-05T12:39:39.673Z,41.60
2019-02-05T12:40:39.678Z,40.30
2019-02-05T12:41:39.653Z,39.10
2019-02-05T12:42:39.636Z,42.60
2019-02-05T12:43:39.653Z,39.00
2019-02-05T12:44:39.614Z,41.80
2019-02-05T12:45:39.649Z,38.20
2019-02-05T12:46:39.606Z,38.20
2019-02-05T12:47:39.606Z,36.20
2019-02-05T12:48:39.579Z,37.50
2019-02-05T12:49:39.571Z,34.50
2019-02-05T12:50:39.578Z,34.00
2019-02-05T12:51:39.559Z,34.70
2019-02-05T12:52:39.566Z,35.10
2019-02-05T12:53:39.527Z,37.80
2019-02-05T12:54:39.502Z,36.50
2019-02-05T12:55:39.520Z,34.60
2019-02-05T12:56:39.514Z,37.10
2019-02-05T12:57:39.470Z,40.00
2019-02-05T12:58:39.488Z,39.50
2019-02-05T12:59:39.482Z,41.30
2019-02-05T13:00:39.462Z,42.70
2019-02-05T13:01:39.440Z,41.20
2019-02-05T13:02:39.455Z,41.00